Time;durP1;ratioP1;P1;durP2;ratioP2;P2;SDS_P1;SDS_P2;PMS_P1;PMS_P2;Temp;Humidity;BMP_temperature;BMP_pressure;BME280_temperature;BME280_humidity;BME280_pressure;Samples;Min_cycle;Max_cycle;Signal;HPM_P1;HPM_P2
2022/06/07 00:00:31;;;;;;;16.50;14.30;;;;;;;;;;4873737;29;20252;-71
2022/06/07 00:02:58;;;;;;;15.10;13.13;;;;;;;;;;4871349;29;20224;-68
2022/06/07 00:05:25;;;;;;;14.40;12.67;;;;;;;;;;4846409;29;20195;-68
2022/06/07 00:07:54;;;;;;;14.37;12.87;;;;;;;;;;4860752;29;20209;-69
2022/06/07 00:10:21;;;;;;;14.60;13.20;;;;;;;;;;4874079;29;20227;-68
2022/06/07 00:13:06;;;;;;;14.70;13.17;;;;;;;;;;4873222;29;20200;-68
2022/06/07 00:15:33;;;;;;;16.43;13.37;;;;;;;;;;4857259;29;20561;-68
2022/06/07 00:18:17;;;;;;;16.60;14.43;;;;;;;;;;4862771;29;20241;-68
2022/06/07 00:20:44;;;;;;;16.77;14.77;;;;;;;;;;4875300;29;20577;-68
2022/06/07 00:23:12;;;;;;;15.97;13.73;;;;;;;;;;4876320;29;20197;-70
2022/06/07 00:25:39;;;;;;;17.87;14.27;;;;;;;;;;4864805;29;20200;-68
2022/06/07 00:28:06;;;;;;;16.87;15.07;;;;;;;;;;4876726;29;20275;-68
2022/06/07 00:30:33;;;;;;;23.00;15.27;;;;;;;;;;4859745;29;20197;-68
2022/06/07 00:33:00;;;;;;;17.27;15.47;;;;;;;;;;4860297;29;20211;-68
2022/06/07 00:35:26;;;;;;;16.83;14.97;;;;;;;;;;4844833;29;20249;-68
2022/06/07 00:38:11;;;;;;;16.87;14.37;;;;;;;;;;4852893;29;20187;-67
2022/06/07 00:40:37;;;;;;;16.77;14.97;;;;;;;;;;4872715;29;20594;-68
2022/06/07 00:43:06;;;;;;;18.77;14.73;;;;;;;;;;4851503;29;20209;-69
2022/06/07 00:45:32;;;;;;;19.30;15.07;;;;;;;;;;4876523;29;20874;-68
2022/06/07 00:47:59;;;;;;;16.10;14.40;;;;;;;;;;4859919;29;20209;-68
2022/06/07 00:50:54;;;;;;;15.57;13.93;;;;;;;;;;4876152;29;20649;-68
2022/06/07 00:53:25;;;;;;;17.37;14.90;;;;;;;;;;4870417;29;20200;-68
2022/06/07 00:55:57;;;;;;;16.23;14.63;;;;;;;;;;4842060;29;20551;-68
2022/06/07 00:58:26;;;;;;;17.80;15.30;;;;;;;;;;4840898;29;20304;-69
2022/06/07 01:00:53;;;;;;;16.07;14.37;;;;;;;;;;4840974;29;20221;-68
2022/06/07 01:03:20;;;;;;;22.43;15.70;;;;;;;;;;4863049;29;20235;-68
2022/06/07 01:05:50;;;;;;;17.47;15.67;;;;;;;;;;4859663;29;20208;-69
2022/06/07 01:11:12;;;;;;;19.37;15.93;;;;;;;;;;4875523;29;20208;-69
2022/06/07 01:13:39;;;;;;;19.77;15.00;;;;;;;;;;4852714;29;20197;-68
2022/06/07 01:16:21;;;;;;;17.37;14.97;;;;;;;;;;4856077;29;20211;-69
2022/06/07 01:18:48;;;;;;;17.33;15.10;;;;;;;;;;4849219;29;20679;-68
2022/06/07 01:21:21;;;;;;;17.60;15.80;;;;;;;;;;4859123;29;20212;-69
2022/06/07 01:23:49;;;;;;;19.60;15.93;;;;;;;;;;4859105;29;20295;-69
2022/06/07 01:26:21;;;;;;;17.87;16.00;;;;;;;;;;4844588;29;21047;-68
2022/06/07 01:28:48;;;;;;;17.43;15.13;;;;;;;;;;4875910;29;20201;-69
2022/06/07 01:31:15;;;;;;;17.40;15.57;;;;;;;;;;4853305;29;20196;-69
2022/06/07 01:33:42;;;;;;;16.50;14.80;;;;;;;;;;4870490;29;20207;-70
2022/06/07 01:36:11;;;;;;;16.47;14.87;;;;;;;;;;4859051;29;20196;-68
2022/06/07 01:38:39;;;;;;;18.57;15.90;;;;;;;;;;4875814;29;20287;-68
2022/06/07 01:44:10;;;;;;;16.93;14.30;;;;;;;;;;4858586;29;20884;-69
2022/06/07 01:46:37;;;;;;;18.93;14.37;;;;;;;;;;4835371;29;20284;-68
2022/06/07 01:49:04;;;;;;;19.50;14.77;;;;;;;;;;4869470;29;20673;-68
2022/06/07 01:51:31;;;;;;;19.93;15.33;;;;;;;;;;4875006;29;20613;-69
2022/06/07 01:53:57;;;;;;;15.93;14.20;;;;;;;;;;4855153;29;20221;-68
2022/06/07 01:56:24;;;;;;;17.00;15.27;;;;;;;;;;4874915;29;20196;-68
2022/06/07 01:58:52;;;;;;;16.33;14.63;;;;;;;;;;4858039;29;20265;-69
2022/06/07 02:01:19;;;;;;;16.83;15.13;;;;;;;;;;4859055;29;20228;-68
2022/06/07 02:03:46;;;;;;;18.43;15.77;;;;;;;;;;4872931;29;20207;-69
2022/06/07 02:06:13;;;;;;;16.50;14.57;;;;;;;;;;4867637;29;20201;-69
2022/06/07 02:08:45;;;;;;;15.97;14.33;;;;;;;;;;4857900;29;20643;-69
2022/06/07 02:11:14;;;;;;;21.23;16.30;;;;;;;;;;4858045;29;20201;-69
2022/06/07 02:13:43;;;;;;;17.77;15.87;;;;;;;;;;4858306;29;20268;-69
2022/06/07 02:16:10;;;;;;;18.73;15.37;;;;;;;;;;4875041;29;20288;-68
2022/06/07 02:18:38;;;;;;;16.83;14.40;;;;;;;;;;4833199;29;20598;-68
2022/06/07 02:21:13;;;;;;;18.37;15.53;;;;;;;;;;4858352;29;20292;-68
2022/06/07 02:23:57;;;;;;;18.13;16.17;;;;;;;;;;4850871;29;20184;-68
2022/06/07 02:26:32;;;;;;;17.73;15.83;;;;;;;;;;4851097;29;20200;-69
2022/06/07 02:29:00;;;;;;;18.03;15.93;;;;;;;;;;4827866;29;20719;-68
2022/06/07 02:31:27;;;;;;;19.93;16.07;;;;;;;;;;4847885;29;20578;-68
2022/06/07 02:33:54;;;;;;;19.90;16.93;;;;;;;;;;4838718;29;20213;-71
2022/06/07 02:36:21;;;;;;;18.80;16.87;;;;;;;;;;4839376;29;20209;-68
2022/06/07 02:38:47;;;;;;;18.10;16.20;;;;;;;;;;4839047;29;20214;-68
2022/06/07 02:41:15;;;;;;;22.80;16.53;;;;;;;;;;4854142;29;20241;-68
2022/06/07 02:43:42;;;;;;;18.53;15.93;;;;;;;;;;4817275;29;20312;-69
2022/06/07 02:46:08;;;;;;;18.00;16.20;;;;;;;;;;4855884;29;20193;-68
2022/06/07 02:48:37;;;;;;;16.83;15.07;;;;;;;;;;4839295;29;20218;-70
2022/06/07 02:51:04;;;;;;;17.07;15.27;;;;;;;;;;4845347;29;20231;-69
2022/06/07 02:53:31;;;;;;;18.00;16.20;;;;;;;;;;4857357;29;20564;-68
2022/06/07 02:55:59;;;;;;;17.80;16.10;;;;;;;;;;4855816;29;20331;-68
2022/06/07 02:58:27;;;;;;;18.40;16.33;;;;;;;;;;4853791;29;20208;-69
2022/06/07 03:00:58;;;;;;;18.17;16.13;;;;;;;;;;4845720;29;20240;-68
2022/06/07 03:03:29;;;;;;;18.93;16.93;;;;;;;;;;4847763;29;20272;-68
2022/06/07 03:05:56;;;;;;;18.13;16.20;;;;;;;;;;4864877;29;20578;-68
2022/06/07 03:08:23;;;;;;;20.47;16.33;;;;;;;;;;4848017;29;20335;-68
2022/06/07 03:10:57;;;;;;;22.40;17.77;;;;;;;;;;4857153;29;20196;-67
2022/06/07 03:13:24;;;;;;;18.70;16.70;;;;;;;;;;4872340;29;20208;-67
2022/06/07 03:15:52;;;;;;;18.57;16.63;;;;;;;;;;4850694;29;20732;-67
2022/06/07 03:18:21;;;;;;;21.43;17.30;;;;;;;;;;4842084;29;20212;-67
2022/06/07 03:20:48;;;;;;;18.73;16.37;;;;;;;;;;4841925;29;20237;-67
2022/06/07 03:23:14;;;;;;;18.17;16.27;;;;;;;;;;4857270;29;20673;-67
2022/06/07 03:25:47;;;;;;;18.37;16.47;;;;;;;;;;4842755;29;20252;-66
2022/06/07 03:28:15;;;;;;;18.23;15.90;;;;;;;;;;4850996;29;20206;-66
2022/06/07 03:30:42;;;;;;;20.13;17.93;;;;;;;;;;4838027;29;20217;-67
2022/06/07 03:33:15;;;;;;;19.73;17.67;;;;;;;;;;4831695;29;20201;-67
2022/06/07 03:36:09;;;;;;;21.73;18.13;;;;;;;;;;4851878;29;20941;-67
2022/06/07 03:38:37;;;;;;;19.73;16.40;;;;;;;;;;4874124;29;20189;-68
2022/06/07 03:41:04;;;;;;;19.97;16.90;;;;;;;;;;4873130;29;20251;-67
2022/06/07 03:43:31;;;;;;;19.87;16.23;;;;;;;;;;4855849;29;20587;-68
2022/06/07 03:46:10;;;;;;;18.50;16.47;;;;;;;;;;4861705;29;20205;-68
2022/06/07 03:48:36;;;;;;;19.03;16.57;;;;;;;;;;4819107;29;20225;-68
2022/06/07 03:51:03;;;;;;;21.80;16.63;;;;;;;;;;4843519;29;20252;-68
2022/06/07 03:53:33;;;;;;;20.93;17.03;;;;;;;;;;4838645;29;20206;-66
2022/06/07 03:56:09;;;;;;;19.27;17.17;;;;;;;;;;4853223;29;20201;-67
2022/06/07 03:58:39;;;;;;;18.97;17.00;;;;;;;;;;4862655;29;20268;-67
2022/06/07 04:01:15;;;;;;;19.13;17.17;;;;;;;;;;4853059;29;20253;-67
2022/06/07 04:03:47;;;;;;;23.30;17.47;;;;;;;;;;4852336;29;20752;-67
2022/06/07 04:06:32;;;;;;;19.97;17.87;;;;;;;;;;4844778;29;20202;-66
2022/06/07 04:09:10;;;;;;;20.87;17.93;;;;;;;;;;4855436;29;20232;-69
2022/06/07 04:11:41;;;;;;;21.97;17.93;;;;;;;;;;4835546;29;20205;-67
2022/06/07 04:14:08;;;;;;;20.23;16.77;;;;;;;;;;4841676;29;20205;-69
2022/06/07 04:16:36;;;;;;;21.73;16.53;;;;;;;;;;4841929;29;20217;-69
2022/06/07 04:19:11;;;;;;;20.67;16.07;;;;;;;;;;4841528;29;20219;-68
2022/06/07 04:21:38;;;;;;;18.10;16.20;;;;;;;;;;4841611;29;20225;-68
2022/06/07 04:24:31;;;;;;;26.20;17.13;;;;;;;;;;4835533;29;20185;-69
2022/06/07 04:27:00;;;;;;;22.37;17.23;;;;;;;;;;4864437;29;20204;-68
2022/06/07 04:29:28;;;;;;;19.47;17.13;;;;;;;;;;4839639;29;20233;-69
2022/06/07 04:31:57;;;;;;;19.87;17.77;;;;;;;;;;4862037;29;20620;-68
2022/06/07 04:34:24;;;;;;;22.53;18.13;;;;;;;;;;4860551;29;20232;-69
2022/06/07 04:36:53;;;;;;;22.50;17.63;;;;;;;;;;4863077;29;20206;-68
2022/06/07 04:39:25;;;;;;;19.77;17.67;;;;;;;;;;4862750;29;20905;-69
2022/06/07 04:41:59;;;;;;;21.40;18.70;;;;;;;;;;4864136;29;20232;-68
2022/06/07 04:44:37;;;;;;;23.83;18.97;;;;;;;;;;4853624;29;20205;-68
2022/06/07 04:47:04;;;;;;;19.77;17.77;;;;;;;;;;4854960;29;20206;-68
2022/06/07 04:49:31;;;;;;;27.47;21.63;;;;;;;;;;4859219;29;20245;-68
2022/06/07 04:51:58;;;;;;;27.33;21.77;;;;;;;;;;4855647;29;20222;-67
2022/06/07 04:54:31;;;;;;;25.07;20.57;;;;;;;;;;4876092;29;20284;-68
2022/06/07 04:57:02;;;;;;;21.97;19.70;;;;;;;;;;4853234;29;20315;-67
2022/06/07 04:59:29;;;;;;;24.13;19.57;;;;;;;;;;4859649;29;20295;-67
2022/06/07 05:01:59;;;;;;;20.73;18.50;;;;;;;;;;4829150;29;20280;-67
2022/06/07 05:04:28;;;;;;;20.10;17.73;;;;;;;;;;4854671;29;20201;-67
2022/06/07 05:06:59;;;;;;;21.27;18.07;;;;;;;;;;4835559;29;20590;-67
2022/06/07 05:09:34;;;;;;;19.23;16.97;;;;;;;;;;4855327;29;20329;-68
2022/06/07 05:12:08;;;;;;;34.07;19.63;;;;;;;;;;4828925;29;20239;-68
2022/06/07 05:14:41;;;;;;;47.10;20.73;;;;;;;;;;4844880;29;20303;-67
2022/06/07 05:17:09;;;;;;;20.33;17.37;;;;;;;;;;4844711;29;20198;-69
2022/06/07 05:19:38;;;;;;;21.93;16.93;;;;;;;;;;4843738;29;20250;-68
2022/06/07 05:22:11;;;;;;;32.67;23.03;;;;;;;;;;4838729;29;20258;-68
2022/06/07 05:24:44;;;;;;;18.00;15.63;;;;;;;;;;4859391;29;20216;-68
2022/06/07 05:27:15;;;;;;;17.87;14.67;;;;;;;;;;4865137;29;20299;-67
2022/06/07 05:29:50;;;;;;;18.67;15.17;;;;;;;;;;4826154;29;20241;-68
2022/06/07 05:32:43;;;;;;;15.77;14.23;;;;;;;;;;4833949;29;20205;-67
2022/06/07 05:35:14;;;;;;;17.70;15.80;;;;;;;;;;4840926;29;20205;-68
2022/06/07 05:37:47;;;;;;;18.03;15.50;;;;;;;;;;4861125;29;20213;-67
2022/06/07 05:40:20;;;;;;;16.77;15.07;;;;;;;;;;4822705;29;21034;-67
2022/06/07 05:42:48;;;;;;;16.77;15.07;;;;;;;;;;4840197;29;20225;-67
2022/06/07 05:45:24;;;;;;;16.60;14.53;;;;;;;;;;4840131;29;20554;-67
2022/06/07 05:47:52;;;;;;;15.53;14.00;;;;;;;;;;4840231;29;20201;-67
2022/06/07 05:50:26;;;;;;;17.00;14.80;;;;;;;;;;4839799;29;20202;-66
2022/06/07 05:52:58;;;;;;;15.33;13.73;;;;;;;;;;4837385;29;20785;-68
2022/06/07 05:55:25;;;;;;;15.73;14.13;;;;;;;;;;4841870;29;20206;-69
2022/06/07 05:57:54;;;;;;;16.87;14.37;;;;;;;;;;4837517;29;20258;-69
2022/06/07 06:00:24;;;;;;;14.70;13.23;;;;;;;;;;4830238;29;20304;-68
2022/06/07 06:02:51;;;;;;;15.53;13.90;;;;;;;;;;4865024;29;21153;-68
2022/06/07 06:05:34;;;;;;;16.87;15.07;;;;;;;;;;4830838;29;20201;-68
2022/06/07 06:11:06;;;;;;;14.33;12.43;;;;;;;;;;4863544;29;20210;-68
2022/06/07 06:13:36;;;;;;;15.27;13.43;;;;;;;;;;4824520;29;20721;-68
2022/06/07 06:16:08;;;;;;;13.93;12.63;;;;;;;;;;4844259;29;20205;-68
2022/06/07 06:18:39;;;;;;;15.70;12.80;;;;;;;;;;4840772;29;20213;-68
2022/06/07 06:21:07;;;;;;;13.23;11.93;;;;;;;;;;4838806;29;20231;-69
2022/06/07 06:23:34;;;;;;;13.60;12.17;;;;;;;;;;4851781;29;20292;-67
2022/06/07 06:26:06;;;;;;;13.50;12.20;;;;;;;;;;4835235;29;20320;-65
2022/06/07 06:28:33;;;;;;;13.00;11.80;;;;;;;;;;4853945;29;20312;-68
2022/06/07 06:31:01;;;;;;;12.97;11.77;;;;;;;;;;4854126;29;20202;-67
2022/06/07 06:33:31;;;;;;;12.80;11.70;;;;;;;;;;4836324;29;20233;-68
2022/06/07 06:35:57;;;;;;;13.23;11.93;;;;;;;;;;4854941;29;20201;-68
2022/06/07 06:38:32;;;;;;;12.53;10.53;;;;;;;;;;4840560;29;20273;-68
2022/06/07 06:41:18;;;;;;;13.87;10.60;;;;;;;;;;4835726;29;20251;-67
2022/06/07 06:43:46;;;;;;;14.27;10.60;;;;;;;;;;4864658;29;20208;-68
2022/06/07 06:46:21;;;;;;;11.97;10.77;;;;;;;;;;4856596;29;20236;-66
2022/06/07 06:48:49;;;;;;;14.00;9.90;;;;;;;;;;4838653;29;20227;-66
2022/06/07 06:51:36;;;;;;;10.83;9.73;;;;;;;;;;4858962;29;20692;-66
2022/06/07 06:54:04;;;;;;;12.30;10.80;;;;;;;;;;4854271;29;20615;-58
2022/06/07 06:56:38;;;;;;;12.43;10.03;;;;;;;;;;4864517;29;20300;-59
2022/06/07 06:59:18;;;;;;;11.60;8.90;;;;;;;;;;4857586;29;20208;-60
2022/06/07 07:02:03;;;;;;;11.63;8.73;;;;;;;;;;4862547;29;20220;-66
2022/06/07 07:04:44;;;;;;;13.40;12.07;;;;;;;;;;4839223;29;20297;-67
2022/06/07 07:07:11;;;;;;;12.50;11.20;;;;;;;;;;4838960;29;20687;-67
2022/06/07 07:09:38;;;;;;;12.17;11.07;;;;;;;;;;4855707;29;20198;-67
2022/06/07 07:12:07;;;;;;;11.17;10.10;;;;;;;;;;4839234;29;20278;-67
2022/06/07 07:14:50;;;;;;;12.87;11.33;;;;;;;;;;4843289;29;20201;-67
2022/06/07 07:17:30;;;;;;;12.90;11.47;;;;;;;;;;4854925;29;20211;-67
2022/06/07 07:19:58;;;;;;;12.50;11.30;;;;;;;;;;4857728;29;20312;-67
2022/06/07 07:22:25;;;;;;;11.80;10.63;;;;;;;;;;4857710;29;20243;-67
2022/06/07 07:24:54;;;;;;;11.67;10.60;;;;;;;;;;4857586;29;20213;-66
2022/06/07 07:27:23;;;;;;;11.33;10.33;;;;;;;;;;4857015;29;20208;-67
2022/06/07 07:29:50;;;;;;;12.77;11.37;;;;;;;;;;4860035;29;20943;-66
2022/06/07 07:32:21;;;;;;;13.30;11.90;;;;;;;;;;4877522;29;20200;-67
2022/06/07 07:34:54;;;;;;;12.07;10.87;;;;;;;;;;4861146;29;20204;-67
2022/06/07 07:37:23;;;;;;;11.77;10.70;;;;;;;;;;4861443;29;20292;-67
2022/06/07 07:40:02;;;;;;;10.80;9.90;;;;;;;;;;4860985;29;20213;-68
2022/06/07 07:42:29;;;;;;;11.97;10.90;;;;;;;;;;4845248;29;20735;-72
2022/06/07 07:45:03;;;;;;;11.50;10.40;;;;;;;;;;4877401;29;20257;-71
2022/06/07 07:47:32;;;;;;;10.33;9.33;;;;;;;;;;4860835;29;20226;-67
2022/06/07 07:49:59;;;;;;;9.10;8.23;;;;;;;;;;4877445;29;20197;-68
2022/06/07 07:52:27;;;;;;;8.43;7.73;;;;;;;;;;4861056;29;20288;-68
2022/06/07 07:55:05;;;;;;;8.33;7.50;;;;;;;;;;4860967;29;20307;-68
2022/06/07 07:57:33;;;;;;;8.83;7.93;;;;;;;;;;4863081;29;20200;-69
2022/06/07 08:00:01;;;;;;;8.13;7.33;;;;;;;;;;4846504;29;20204;-69
2022/06/07 08:02:28;;;;;;;8.37;7.50;;;;;;;;;;4857675;29;20732;-69
2022/06/07 08:05:09;;;;;;;8.90;8.10;;;;;;;;;;4846067;29;20201;-67
2022/06/07 08:07:38;;;;;;;9.63;8.60;;;;;;;;;;4863271;29;20701;-67
2022/06/07 08:10:22;;;;;;;9.70;8.17;;;;;;;;;;4860673;29;20209;-66
2022/06/07 08:12:54;;;;;;;8.23;7.43;;;;;;;;;;4862192;29;20291;-67
2022/06/07 08:15:23;;;;;;;7.97;7.17;;;;;;;;;;4862303;29;20379;-67
2022/06/07 08:17:52;;;;;;;8.37;7.67;;;;;;;;;;4860769;29;20197;-68
2022/06/07 08:20:20;;;;;;;8.87;7.90;;;;;;;;;;4855909;29;20209;-63
2022/06/07 08:22:49;;;;;;;10.67;8.07;;;;;;;;;;4858319;29;20233;-67
2022/06/07 08:25:18;;;;;;;8.60;7.73;;;;;;;;;;4858102;29;20610;-68
2022/06/07 08:27:45;;;;;;;8.23;6.93;;;;;;;;;;4857279;29;20316;-68
2022/06/07 08:30:13;;;;;;;7.23;6.63;;;;;;;;;;4845161;29;20247;-68
2022/06/07 08:32:42;;;;;;;7.50;6.80;;;;;;;;;;4856372;29;20212;-58
2022/06/07 08:37:56;;;;;;;7.47;6.87;;;;;;;;;;4857252;29;20204;-64
2022/06/07 08:40:33;;;;;;;7.53;6.83;;;;;;;;;;4856376;29;20206;-63
2022/06/07 08:43:01;;;;;;;7.53;6.70;;;;;;;;;;4859934;29;20253;-66
2022/06/07 08:45:30;;;;;;;8.33;7.40;;;;;;;;;;4839516;29;20190;-64
2022/06/07 08:48:06;;;;;;;8.20;7.50;;;;;;;;;;4854204;29;20251;-68
2022/06/07 08:50:34;;;;;;;7.77;7.17;;;;;;;;;;4860175;29;20232;-66
2022/06/07 08:53:03;;;;;;;7.43;6.83;;;;;;;;;;4857152;29;20315;-68
2022/06/07 08:55:30;;;;;;;7.43;6.57;;;;;;;;;;4856340;29;20213;-67
2022/06/07 08:58:01;;;;;;;6.77;6.20;;;;;;;;;;4857965;29;20572;-68
2022/06/07 09:00:29;;;;;;;7.10;6.50;;;;;;;;;;4838152;29;20200;-68
2022/06/07 09:03:14;;;;;;;8.17;7.33;;;;;;;;;;4856353;29;20218;-68
2022/06/07 09:05:43;;;;;;;9.00;7.93;;;;;;;;;;4858994;29;20248;-67
2022/06/07 09:08:11;;;;;;;7.90;6.77;;;;;;;;;;4860743;29;21026;-69
2022/06/07 09:13:24;;;;;;;8.13;6.17;;;;;;;;;;4860594;29;20203;-69
2022/06/07 09:15:52;;;;;;;6.90;6.20;;;;;;;;;;4842671;29;20296;-69
2022/06/07 09:18:20;;;;;;;6.07;5.30;;;;;;;;;;4861321;29;20220;-70
2022/06/07 09:20:48;;;;;;;6.13;5.53;;;;;;;;;;4861611;29;20201;-68
2022/06/07 09:23:15;;;;;;;5.80;5.17;;;;;;;;;;4859631;29;20228;-69
2022/06/07 09:25:46;;;;;;;5.73;4.83;;;;;;;;;;4856604;29;20746;-69
2022/06/07 09:28:16;;;;;;;6.23;5.63;;;;;;;;;;4861197;29;20236;-69
2022/06/07 09:30:44;;;;;;;6.10;5.60;;;;;;;;;;4859526;29;20201;-69
2022/06/07 09:33:22;;;;;;;6.00;5.47;;;;;;;;;;4859902;29;20205;-70
2022/06/07 09:35:50;;;;;;;5.93;5.33;;;;;;;;;;4841964;29;20209;-71
2022/06/07 09:38:17;;;;;;;5.93;5.33;;;;;;;;;;4825520;29;20213;-71
2022/06/07 09:40:44;;;;;;;6.53;5.13;;;;;;;;;;4859609;29;20311;-70
2022/06/07 09:43:11;;;;;;;7.57;5.30;;;;;;;;;;4854308;29;20202;-71
2022/06/07 09:45:39;;;;;;;9.10;5.27;;;;;;;;;;4860319;29;20742;-69
2022/06/07 09:48:25;;;;;;;6.67;5.30;;;;;;;;;;4843989;29;20209;-70
2022/06/07 09:50:56;;;;;;;5.77;5.07;;;;;;;;;;4859217;29;20213;-69
2022/06/07 09:53:23;;;;;;;5.23;4.83;;;;;;;;;;4850766;29;20202;-70
2022/06/07 09:55:50;;;;;;;7.83;5.83;;;;;;;;;;4839900;29;20626;-68
2022/06/07 09:58:35;;;;;;;5.87;5.27;;;;;;;;;;4843652;29;20216;-68
2022/06/07 10:01:14;;;;;;;5.57;5.10;;;;;;;;;;4861709;29;20276;-69
2022/06/07 10:03:52;;;;;;;5.90;5.30;;;;;;;;;;4853370;29;20228;-70
2022/06/07 10:06:21;;;;;;;5.67;5.03;;;;;;;;;;4854267;29;20225;-69
2022/06/07 10:09:08;;;;;;;5.87;5.27;;;;;;;;;;4843681;29;20848;-70
2022/06/07 10:11:55;;;;;;;5.33;4.90;;;;;;;;;;4826886;29;20299;-70
2022/06/07 10:14:44;;;;;;;6.57;5.97;;;;;;;;;;4856556;29;20196;-69
2022/06/07 10:17:27;;;;;;;7.27;5.33;;;;;;;;;;4857753;29;20200;-69
2022/06/07 10:20:08;;;;;;;5.43;4.90;;;;;;;;;;4862263;29;20216;-69
2022/06/07 10:22:35;;;;;;;7.70;5.63;;;;;;;;;;4834022;29;20524;-68
2022/06/07 10:25:09;;;;;;;5.50;5.00;;;;;;;;;;4863130;29;20196;-68
2022/06/07 10:27:45;;;;;;;5.90;5.40;;;;;;;;;;4853725;29;20265;-69
2022/06/07 10:30:14;;;;;;;6.67;6.03;;;;;;;;;;4852640;29;20217;-68
2022/06/07 10:32:59;;;;;;;6.80;5.73;;;;;;;;;;4840256;29;20233;-69
2022/06/07 10:35:49;;;;;;;5.60;4.90;;;;;;;;;;4857791;29;20201;-68
2022/06/07 10:38:30;;;;;;;5.13;4.63;;;;;;;;;;4860286;29;20192;-69
2022/06/07 10:41:16;;;;;;;5.77;5.30;;;;;;;;;;4858861;29;20757;-68
2022/06/07 10:43:59;;;;;;;5.53;5.03;;;;;;;;;;4843350;29;20660;-70
2022/06/07 10:46:27;;;;;;;4.17;3.40;;;;;;;;;;4844667;29;20189;-68
2022/06/07 10:48:56;;;;;;;4.70;4.30;;;;;;;;;;4853757;29;20267;-68
2022/06/07 10:54:12;;;;;;;4.80;4.40;;;;;;;;;;4855016;29;20205;-69
2022/06/07 10:56:40;;;;;;;3.83;3.53;;;;;;;;;;4825089;29;20236;-68
2022/06/07 10:59:23;;;;;;;3.97;3.67;;;;;;;;;;4859390;29;20566;-70
2022/06/07 11:01:53;;;;;;;4.17;3.73;;;;;;;;;;4835864;29;20353;-70
2022/06/07 11:10:21;;;;;;;5.13;4.73;;;;;;;;;;4838655;29;20201;-67
2022/06/07 11:13:08;;;;;;;5.50;5.00;;;;;;;;;;4838645;29;20198;-68
2022/06/07 11:15:40;;;;;;;5.50;5.00;;;;;;;;;;4839381;29;20305;-68
2022/06/07 11:18:34;;;;;;;6.27;5.53;;;;;;;;;;4834608;29;20304;-66
2022/06/07 11:21:01;;;;;;;6.30;5.70;;;;;;;;;;4848978;29;20224;-68
2022/06/07 11:23:32;;;;;;;5.40;4.90;;;;;;;;;;4854574;29;20220;-70
2022/06/07 11:26:15;;;;;;;4.97;4.57;;;;;;;;;;4837460;29;20205;-68
2022/06/07 11:28:43;;;;;;;5.10;4.70;;;;;;;;;;4862115;29;20248;-66
2022/06/07 11:31:29;;;;;;;3.63;3.30;;;;;;;;;;4820814;29;21045;-67
2022/06/07 11:33:56;;;;;;;4.03;3.70;;;;;;;;;;4851448;29;20205;-67
2022/06/07 11:36:28;;;;;;;4.07;3.37;;;;;;;;;;4859983;29;20211;-66
2022/06/07 11:38:55;;;;;;;3.97;3.20;;;;;;;;;;4837545;29;20618;-69
2022/06/07 11:41:37;;;;;;;2.93;2.57;;;;;;;;;;4851009;29;20225;-68
2022/06/07 11:44:04;;;;;;;3.97;3.67;;;;;;;;;;4853340;29;20228;-67
2022/06/07 11:46:34;;;;;;;3.50;3.20;;;;;;;;;;4858981;29;20728;-68
2022/06/07 11:49:18;;;;;;;9.47;6.57;;;;;;;;;;4855079;29;20666;-67
2022/06/07 11:52:04;;;;;;;9.43;8.50;;;;;;;;;;4855187;29;20198;-67
2022/06/07 11:54:45;;;;;;;9.27;8.27;;;;;;;;;;4854960;29;20308;-67
2022/06/07 11:57:32;;;;;;;9.07;8.27;;;;;;;;;;4855136;29;20689;-67
2022/06/07 12:00:00;;;;;;;9.47;8.47;;;;;;;;;;4869004;29;20197;-67
2022/06/07 12:03:06;;;;;;;14.07;8.80;;;;;;;;;;4873774;29;20311;-67
2022/06/07 12:05:37;;;;;;;10.37;8.37;;;;;;;;;;4873755;29;20686;-67
2022/06/07 12:08:17;;;;;;;11.57;8.07;;;;;;;;;;4857327;29;20197;-67
2022/06/07 12:11:02;;;;;;;9.63;8.13;;;;;;;;;;4873591;29;20203;-67
2022/06/07 12:13:49;;;;;;;9.53;8.63;;;;;;;;;;4874103;29;20179;-67
2022/06/07 12:16:19;;;;;;;10.47;8.17;;;;;;;;;;4859282;29;20254;-68
2022/06/07 12:18:50;;;;;;;9.60;8.00;;;;;;;;;;4875940;29;20556;-68
2022/06/07 12:21:17;;;;;;;9.03;8.23;;;;;;;;;;4861019;29;20201;-67
2022/06/07 12:23:45;;;;;;;8.33;7.63;;;;;;;;;;4877021;29;20233;-67
2022/06/07 12:26:31;;;;;;;9.37;8.43;;;;;;;;;;4863279;29;21065;-67
2022/06/07 12:29:07;;;;;;;9.77;8.77;;;;;;;;;;4877112;29;20197;-67
2022/06/07 12:31:37;;;;;;;9.90;8.90;;;;;;;;;;4877500;29;20189;-67
2022/06/07 12:34:15;;;;;;;10.90;9.33;;;;;;;;;;4845286;29;20196;-67
2022/06/07 12:37:03;;;;;;;9.80;8.83;;;;;;;;;;4876785;29;21011;-67
2022/06/07 12:39:30;;;;;;;9.60;8.70;;;;;;;;;;4877317;29;20273;-66
2022/06/07 12:41:58;;;;;;;9.73;8.77;;;;;;;;;;4866473;29;20241;-67
2022/06/07 12:44:25;;;;;;;9.90;8.90;;;;;;;;;;4857142;29;20200;-67
2022/06/07 12:46:52;;;;;;;9.43;8.60;;;;;;;;;;4876725;29;20197;-67
2022/06/07 12:49:20;;;;;;;9.67;8.70;;;;;;;;;;4875825;29;20323;-67
2022/06/07 12:52:03;;;;;;;9.87;8.97;;;;;;;;;;4848885;29;20189;-67
2022/06/07 12:54:33;;;;;;;9.90;9.00;;;;;;;;;;4876640;29;21073;-67
2022/06/07 12:57:06;;;;;;;9.70;8.73;;;;;;;;;;4876494;29;20919;-67
2022/06/07 13:00:03;;;;;;;10.17;9.13;;;;;;;;;;4847095;29;20581;-67
2022/06/07 13:02:37;;;;;;;10.00;9.00;;;;;;;;;;4853883;29;20224;-66
2022/06/07 13:05:06;;;;;;;10.23;9.20;;;;;;;;;;4859885;29;20197;-67
2022/06/07 13:07:34;;;;;;;9.83;8.83;;;;;;;;;;4859803;29;20201;-67
2022/06/07 13:10:10;;;;;;;9.53;8.63;;;;;;;;;;4874786;29;20229;-66
2022/06/07 13:12:55;;;;;;;9.60;8.70;;;;;;;;;;4862760;29;20197;-66
2022/06/07 13:15:22;;;;;;;10.57;8.97;;;;;;;;;;4875798;29;20724;-66
2022/06/07 13:18:21;;;;;;;9.90;8.90;;;;;;;;;;4850363;29;20311;-67
2022/06/07 13:20:49;;;;;;;9.90;8.90;;;;;;;;;;4876011;29;20207;-68
2022/06/07 13:23:25;;;;;;;10.80;9.80;;;;;;;;;;4876054;29;20337;-67
2022/06/07 13:25:54;;;;;;;11.73;10.53;;;;;;;;;;4860028;29;20269;-67
2022/06/07 13:28:24;;;;;;;11.67;10.47;;;;;;;;;;4859557;29;20212;-68
2022/06/07 13:30:54;;;;;;;10.63;9.57;;;;;;;;;;4875624;29;20565;-67
2022/06/07 13:33:20;;;;;;;10.97;9.87;;;;;;;;;;4876033;29;20230;-67
2022/06/07 13:35:49;;;;;;;10.97;9.77;;;;;;;;;;4858816;29;20653;-68
2022/06/07 13:38:28;;;;;;;11.60;10.60;;;;;;;;;;4876100;29;20223;-67
2022/06/07 13:41:09;;;;;;;10.23;9.33;;;;;;;;;;4875191;29;20261;-68
2022/06/07 13:43:37;;;;;;;10.00;8.93;;;;;;;;;;4859557;29;20299;-67
2022/06/07 13:46:06;;;;;;;10.50;9.40;;;;;;;;;;4862262;29;20246;-67
2022/06/07 13:54:14;;;;;;;11.93;9.60;;;;;;;;;;4875556;29;20204;-67
2022/06/07 13:56:41;;;;;;;10.53;9.43;;;;;;;;;;4874999;29;20613;-67
2022/06/07 13:59:08;;;;;;;9.47;8.67;;;;;;;;;;4859081;29;20199;-67
2022/06/07 14:01:35;;;;;;;9.97;8.97;;;;;;;;;;4859065;29;20196;-68
2022/06/07 14:04:08;;;;;;;9.33;8.40;;;;;;;;;;4843140;29;20213;-67
2022/06/07 14:06:36;;;;;;;10.33;9.43;;;;;;;;;;4859054;29;20226;-65
2022/06/07 14:09:24;;;;;;;13.20;8.87;;;;;;;;;;4875312;29;20191;-67
2022/06/07 14:11:53;;;;;;;9.27;8.37;;;;;;;;;;4874851;29;20224;-67
2022/06/07 14:14:20;;;;;;;10.77;9.10;;;;;;;;;;4874948;29;20307;-67
2022/06/07 14:16:50;;;;;;;11.30;9.30;;;;;;;;;;4874559;29;20205;-68
2022/06/07 14:19:20;;;;;;;11.97;8.87;;;;;;;;;;4847859;29;20197;-67
2022/06/07 14:22:15;;;;;;;10.33;9.43;;;;;;;;;;4860230;29;20196;-67
2022/06/07 14:24:42;;;;;;;13.90;9.47;;;;;;;;;;4874727;29;20208;-68
2022/06/07 14:27:12;;;;;;;10.93;9.83;;;;;;;;;;4875036;29;20236;-67
2022/06/07 14:29:39;;;;;;;15.33;12.37;;;;;;;;;;4858865;29;20298;-67
2022/06/07 14:32:08;;;;;;;28.47;20.70;;;;;;;;;;4874875;29;20185;-67
2022/06/07 14:34:36;;;;;;;17.00;14.00;;;;;;;;;;4858868;29;20192;-67
2022/06/07 14:37:03;;;;;;;12.97;11.73;;;;;;;;;;4874489;29;20230;-67
2022/06/07 14:39:31;;;;;;;11.40;10.30;;;;;;;;;;4874243;29;20265;-67
2022/06/07 14:41:57;;;;;;;11.93;10.30;;;;;;;;;;4874481;29;20281;-67
2022/06/07 14:44:24;;;;;;;14.50;11.93;;;;;;;;;;4874652;29;20205;-67
2022/06/07 14:46:51;;;;;;;13.97;12.57;;;;;;;;;;4858380;29;20197;-67
2022/06/07 14:49:37;;;;;;;14.23;12.77;;;;;;;;;;4833174;29;20272;-67
2022/06/07 14:52:05;;;;;;;14.73;13.23;;;;;;;;;;4874198;29;20204;-67
2022/06/07 14:54:49;;;;;;;12.27;11.17;;;;;;;;;;4860603;29;20596;-67
2022/06/07 14:57:20;;;;;;;12.47;11.27;;;;;;;;;;4858125;29;20209;-67
2022/06/07 15:00:06;;;;;;;13.33;12.03;;;;;;;;;;4874169;29;20180;-67
2022/06/07 15:02:34;;;;;;;14.37;12.87;;;;;;;;;;4874169;29;20220;-67
2022/06/07 15:05:17;;;;;;;13.03;11.70;;;;;;;;;;4857223;29;20209;-67
2022/06/07 15:07:48;;;;;;;12.70;11.40;;;;;;;;;;4858082;29;20192;-67
2022/06/07 15:10:35;;;;;;;12.17;11.07;;;;;;;;;;4874639;29;20557;-67
2022/06/07 15:13:03;;;;;;;11.23;10.20;;;;;;;;;;4873974;29;20193;-67
2022/06/07 15:15:48;;;;;;;20.73;17.50;;;;;;;;;;4861090;29;20242;-67
2022/06/07 15:18:16;;;;;;;13.63;11.93;;;;;;;;;;4856422;29;20692;-66
2022/06/07 15:21:00;;;;;;;12.03;10.83;;;;;;;;;;4860039;29;20197;-67
2022/06/07 15:23:27;;;;;;;17.40;14.37;;;;;;;;;;4874300;29;20601;-67